White Bird, Idaho
Current Conditions -  °F | °C
As of 12:15 PM on Thursday 29 Jan 2015 (Local Time) from KGIC Reporting Station
Clear Clear  
Wind Chill: 39°   Ceiling: Unl
Heat Index: 39°   Visibility: 10mi
Dew Point: 32°   Wind: 3mph
Humidity: 76%   Direction: 40°NE
Pressure: 30.39"   Gusts: NA
Location:  45.76°N, 116.3°W
Report Text: KGIC 292015Z AUTO 04003KT 10SM CLR 04/00 A3039 RMK AO1 T00381001
Loading
Personal Weather Stations






























Interactive Weather Map New forecast layout! Learn more

10-Day Weather Forecast

Advertisements
Track Severe Weather on mobile